createdAt,value
2023-01-13T00:01:27.252Z,33.12
2023-01-13T00:04:31.837Z,33.37
2023-01-13T00:07:35.081Z,33.16
2023-01-13T00:10:39.600Z,32.88
2023-01-13T00:13:43.005Z,32.93
2023-01-13T00:16:46.050Z,33.46
2023-01-13T00:19:49.259Z,33.40
2023-01-13T00:22:53.104Z,33.29
2023-01-13T00:25:58.890Z,32.96
2023-01-13T00:29:02.732Z,33.43
2023-01-13T00:32:06.399Z,33.47
2023-01-13T00:35:10.423Z,32.92
2023-01-13T00:38:13.790Z,33.32
2023-01-13T00:41:20.488Z,33.13
2023-01-13T00:44:22.734Z,33.38
2023-01-13T00:47:25.769Z,33.36
2023-01-13T00:50:30.329Z,33.08
2023-01-13T00:53:36.493Z,32.90
2023-01-13T00:56:41.510Z,33.13
2023-01-13T00:59:44.566Z,33.02
2023-01-13T01:02:48.345Z,33.31
2023-01-13T01:05:51.503Z,33.53
2023-01-13T01:08:56.162Z,33.14
2023-01-13T01:12:00.947Z,33.14
2023-01-13T01:15:06.057Z,32.84
2023-01-13T01:18:12.254Z,33.20
2023-01-13T01:21:16.090Z,33.33
2023-01-13T01:24:19.405Z,33.01
2023-01-13T01:27:24.483Z,33.09
2023-01-13T01:30:28.236Z,33.01
2023-01-13T01:33:31.577Z,33.14
2023-01-13T01:36:37.054Z,32.92
2023-01-13T01:39:40.589Z,32.87
2023-01-13T01:43:02.796Z,32.56
2023-01-13T01:46:06.195Z,32.85
2023-01-13T01:49:19.155Z,32.74
2023-01-13T01:52:26.594Z,32.70
2023-01-13T01:55:34.834Z,32.49
2023-01-13T01:58:46.243Z,32.35
2023-01-13T02:01:49.987Z,32.59
2023-01-13T02:04:57.075Z,32.60
2023-01-13T02:08:01.875Z,32.73
2023-01-13T02:11:05.466Z,32.49
2023-01-13T02:14:09.603Z,32.46
2023-01-13T02:17:26.227Z,32.93
2023-01-13T02:21:00.318Z,32.56
2023-01-13T02:24:53.432Z,32.39
2023-01-13T02:28:14.086Z,32.49
2023-01-13T02:31:36.448Z,32.70
2023-01-13T02:34:44.467Z,32.80
2023-01-13T02:37:48.847Z,32.54
2023-01-13T02:40:59.576Z,32.34
2023-01-13T02:44:07.473Z,32.49
2023-01-13T02:47:18.241Z,32.64
2023-01-13T02:50:25.709Z,32.46
2023-01-13T02:53:35.021Z,32.79
2023-01-13T02:56:43.213Z,32.74
2023-01-13T02:59:46.542Z,32.69
2023-01-13T03:02:52.319Z,32.73
2023-01-13T03:06:01.658Z,32.76
2023-01-13T03:09:09.585Z,32.64
2023-01-13T03:12:18.951Z,32.55
2023-01-13T03:15:30.674Z,32.18
2023-01-13T03:18:44.057Z,32.51
2023-01-13T03:21:53.563Z,32.29
2023-01-13T03:25:02.847Z,32.50
2023-01-13T03:28:13.857Z,32.35
2023-01-13T03:31:23.090Z,32.30
2023-01-13T03:34:32.823Z,32.87
2023-01-13T03:37:39.908Z,32.77
2023-01-13T03:40:48.860Z,32.29
2023-01-13T03:44:13.155Z,32.50
2023-01-13T03:47:22.326Z,32.66
2023-01-13T03:50:35.565Z,32.16
2023-01-13T03:53:41.856Z,32.36
2023-01-13T03:56:48.506Z,32.37
2023-01-13T03:59:57.093Z,32.30
2023-01-13T04:03:07.439Z,32.58
2023-01-13T04:06:17.463Z,32.22
2023-01-13T04:09:31.556Z,32.42
2023-01-13T04:12:58.253Z,32.17
2023-01-13T04:16:02.336Z,32.64
2023-01-13T04:19:06.631Z,32.41
2023-01-13T04:22:11.683Z,32.27
2023-01-13T04:25:15.050Z,32.30
2023-01-13T04:28:19.587Z,32.70
2023-01-13T04:31:22.930Z,32.85
2023-01-13T04:34:28.207Z,32.86
2023-01-13T04:37:33.133Z,32.82
2023-01-13T04:40:36.686Z,32.95
2023-01-13T04:43:40.102Z,32.78
2023-01-13T04:46:43.988Z,33.04
2023-01-13T04:49:47.556Z,32.86
2023-01-13T04:52:53.495Z,33.20
2023-01-13T04:55:56.891Z,32.89
2023-01-13T04:59:00.073Z,32.71
2023-01-13T05:02:03.618Z,32.53
2023-01-13T05:05:07.604Z,32.83
2023-01-13T05:08:12.136Z,32.85
2023-01-13T05:11:32.716Z,33.24
2023-01-13T05:15:04.869Z,33.09
2023-01-13T05:18:08.586Z,33.34
2023-01-13T05:21:31.949Z,33.20
2023-01-13T05:24:54.230Z,33.44
2023-01-13T05:27:59.354Z,33.19
2023-01-13T05:31:03.232Z,32.85
2023-01-13T05:34:06.686Z,32.74
2023-01-13T05:37:11.179Z,32.92
2023-01-13T05:40:35.952Z,32.68
2023-01-13T05:43:39.790Z,32.54
2023-01-13T05:46:42.999Z,32.91
2023-01-13T05:49:46.031Z,32.58
2023-01-13T05:52:49.573Z,32.76
2023-01-13T05:55:54.927Z,32.78
2023-01-13T05:58:58.149Z,32.57
2023-01-13T06:02:01.297Z,32.57
2023-01-13T06:05:04.503Z,32.88
2023-01-13T06:08:08.917Z,32.77
2023-01-13T06:11:13.515Z,32.90
2023-01-13T06:14:16.626Z,32.70
2023-01-13T06:17:19.863Z,32.13
2023-01-13T06:20:22.904Z,32.70
2023-01-13T06:23:26.258Z,32.82
2023-01-13T06:26:33.162Z,32.66
2023-01-13T06:29:36.364Z,32.56
2023-01-13T06:32:42.960Z,32.71
2023-01-13T06:35:50.753Z,32.95
2023-01-13T06:38:58.532Z,32.54
2023-01-13T06:42:22.265Z,32.74
2023-01-13T06:45:28.152Z,32.77
2023-01-13T06:48:35.348Z,33.12
2023-01-13T06:51:39.078Z,32.67
2023-01-13T06:54:42.243Z,33.11
2023-01-13T06:57:55.336Z,33.02
2023-01-13T07:01:01.922Z,33.01
2023-01-13T07:04:05.300Z,32.82
2023-01-13T07:07:09.035Z,32.76
2023-01-13T07:10:14.631Z,33.20
2023-01-13T07:13:41.719Z,33.28
2023-01-13T07:16:45.661Z,33.02
2023-01-13T07:19:48.754Z,32.68
2023-01-13T07:22:56.783Z,33.06
2023-01-13T07:26:00.818Z,32.58
2023-01-13T07:29:05.344Z,32.63
2023-01-13T07:32:08.754Z,32.88
2023-01-13T07:35:11.742Z,32.56
2023-01-13T07:38:15.019Z,33.31
2023-01-13T07:41:35.856Z,33.37
2023-01-13T07:44:40.487Z,33.52
2023-01-13T07:47:43.561Z,33.41
2023-01-13T07:50:47.825Z,33.79
2023-01-13T07:53:50.879Z,33.98
2023-01-13T07:56:53.952Z,33.86
2023-01-13T07:59:58.747Z,33.64
2023-01-13T08:03:01.968Z,33.36
2023-01-13T08:06:05.677Z,33.91
2023-01-13T08:09:09.753Z,33.90
2023-01-13T08:12:30.059Z,33.29
2023-01-13T08:15:34.823Z,33.36
2023-01-13T08:18:39.557Z,33.66
2023-01-13T08:21:42.775Z,33.51
2023-01-13T08:24:46.529Z,33.24
2023-01-13T08:27:51.214Z,33.45
2023-01-13T08:30:56.027Z,33.32
2023-01-13T08:33:59.054Z,33.17
2023-01-13T08:37:02.391Z,33.23
2023-01-13T08:40:09.225Z,32.75
2023-01-13T08:43:12.451Z,32.86
2023-01-13T08:46:17.325Z,33.18
2023-01-13T08:49:20.612Z,32.84
2023-01-13T08:52:24.377Z,33.00
2023-01-13T08:55:27.430Z,32.66
2023-01-13T08:58:30.446Z,32.89
2023-01-13T09:01:35.236Z,32.79
2023-01-13T09:04:38.416Z,32.86
2023-01-13T09:07:41.635Z,32.75
2023-01-13T09:10:44.947Z,32.91
2023-01-13T09:13:47.071Z,33.11
2023-01-13T09:16:51.512Z,32.81
2023-01-13T09:19:54.828Z,32.65
2023-01-13T09:22:58.300Z,33.07
2023-01-13T09:26:01.399Z,32.83
2023-01-13T09:29:04.752Z,33.03
2023-01-13T09:32:15.284Z,32.82
2023-01-13T09:35:18.549Z,33.01
2023-01-13T09:38:21.947Z,33.04
2023-01-13T09:41:44.778Z,33.11
2023-01-13T09:44:55.411Z,32.56
2023-01-13T09:48:07.803Z,32.57
2023-01-13T09:51:21.040Z,32.71
2023-01-13T09:54:32.942Z,32.69
2023-01-13T09:57:40.548Z,33.00
2023-01-13T10:00:48.149Z,32.72
2023-01-13T10:03:52.814Z,32.44
2023-01-13T10:07:00.791Z,32.77
2023-01-13T10:10:09.265Z,32.91
2023-01-13T10:13:24.378Z,32.56
2023-01-13T10:16:42.043Z,32.55
2023-01-13T10:19:53.121Z,32.49
2023-01-13T10:23:08.209Z,32.52
2023-01-13T10:26:27.009Z,32.68
2023-01-13T10:29:32.210Z,32.92
2023-01-13T10:32:35.240Z,32.70
2023-01-13T10:35:59.264Z,32.76
2023-01-13T10:39:10.493Z,32.85
2023-01-13T10:42:16.095Z,32.58
2023-01-13T10:45:26.727Z,33.07
2023-01-13T10:48:40.338Z,32.68
2023-01-13T10:51:48.449Z,32.91
2023-01-13T10:54:54.356Z,32.59
2023-01-13T10:57:57.761Z,32.81
2023-01-13T11:01:04.799Z,32.69
2023-01-13T11:04:29.170Z,33.06
2023-01-13T11:07:36.690Z,32.57
2023-01-13T11:10:46.778Z,32.49
2023-01-13T11:14:09.195Z,32.84
2023-01-13T11:17:24.674Z,33.10
2023-01-13T11:20:36.955Z,32.98
2023-01-13T11:23:48.625Z,32.85
2023-01-13T11:26:58.311Z,33.01
2023-01-13T11:30:10.093Z,32.88
2023-01-13T11:33:30.607Z,32.67
2023-01-13T11:36:38.871Z,32.67
2023-01-13T11:39:53.869Z,32.85
2023-01-13T11:43:02.855Z,32.80
2023-01-13T11:46:07.820Z,32.89
2023-01-13T11:49:25.245Z,32.70
2023-01-13T11:52:41.547Z,32.66
2023-01-13T11:55:56.054Z,32.79
2023-01-13T11:59:21.229Z,32.78
2023-01-13T12:02:45.257Z,32.67
2023-01-13T12:06:10.576Z,32.89
2023-01-13T12:09:41.354Z,32.69
2023-01-13T12:12:53.077Z,32.79
2023-01-13T12:16:23.585Z,32.94
2023-01-13T12:19:28.236Z,32.43
2023-01-13T12:22:35.964Z,32.68
2023-01-13T12:25:44.617Z,32.58
2023-01-13T12:28:52.701Z,32.62
2023-01-13T12:31:56.693Z,32.64
2023-01-13T12:35:09.545Z,32.41
2023-01-13T12:38:21.273Z,32.67
2023-01-13T12:41:34.690Z,32.65
2023-01-13T12:44:38.238Z,32.47
2023-01-13T12:47:44.036Z,32.39
2023-01-13T12:51:00.883Z,32.77
2023-01-13T12:54:06.884Z,32.85
2023-01-13T12:57:22.002Z,32.64
2023-01-13T13:00:33.487Z,32.72
2023-01-13T13:03:37.733Z,32.81
2023-01-13T13:06:44.895Z,32.67
2023-01-13T13:09:54.207Z,32.80
2023-01-13T13:13:18.184Z,32.84
2023-01-13T13:16:48.654Z,33.08
2023-01-13T13:19:52.312Z,33.00
2023-01-13T13:22:55.436Z,32.92
2023-01-13T13:26:04.792Z,32.73
2023-01-13T13:29:29.630Z,32.76
2023-01-13T13:33:00.626Z,32.54
2023-01-13T13:36:16.094Z,32.67
2023-01-13T13:39:41.179Z,32.80
2023-01-13T13:43:03.285Z,32.58
2023-01-13T13:46:42.131Z,32.65
2023-01-13T13:49:50.775Z,32.70
2023-01-13T13:53:00.026Z,32.77
2023-01-13T13:56:05.423Z,32.54
2023-01-13T13:59:11.735Z,32.54
2023-01-13T14:02:21.352Z,32.94
2023-01-13T14:05:28.579Z,32.82
2023-01-13T14:08:34.676Z,32.47
2023-01-13T14:11:38.049Z,32.72
2023-01-13T14:14:44.845Z,32.81
2023-01-13T14:17:48.772Z,32.83
2023-01-13T14:21:16.145Z,32.89
2023-01-13T14:27:27.607Z,32.43
2023-01-13T14:30:31.009Z,32.85
2023-01-13T14:33:38.846Z,32.39
2023-01-13T14:36:43.669Z,32.60
2023-01-13T14:39:46.803Z,32.78
2023-01-13T14:42:58.531Z,32.38
2023-01-13T14:46:03.895Z,32.37
2023-01-13T14:49:07.003Z,32.85
2023-01-13T14:52:18.022Z,32.60
2023-01-13T14:55:30.480Z,32.76
2023-01-13T14:58:33.583Z,32.44
2023-01-13T15:01:39.615Z,32.78
2023-01-13T15:04:45.493Z,32.76
2023-01-13T15:07:53.337Z,32.76
2023-01-13T15:11:00.237Z,32.42
2023-01-13T15:14:11.946Z,32.87
2023-01-13T15:17:18.716Z,32.91
2023-01-13T15:20:23.250Z,32.65
2023-01-13T15:23:27.777Z,32.45
2023-01-13T15:26:31.405Z,32.68
2023-01-13T15:29:34.593Z,32.64
2023-01-13T15:32:38.005Z,32.97
2023-01-13T15:35:44.489Z,32.58
2023-01-13T15:38:50.916Z,32.94
2023-01-13T15:42:11.456Z,32.60
2023-01-13T15:45:31.923Z,32.91
2023-01-13T15:48:35.771Z,32.65
2023-01-13T15:51:39.059Z,32.57
2023-01-13T15:54:43.527Z,32.99
2023-01-13T15:57:49.891Z,32.57
2023-01-13T16:00:53.122Z,32.49
2023-01-13T16:03:56.626Z,32.90
2023-01-13T16:07:00.868Z,32.53
2023-01-13T16:10:05.756Z,32.71
2023-01-13T16:13:08.972Z,32.76
2023-01-13T16:16:20.017Z,32.64
2023-01-13T16:19:23.214Z,32.67
2023-01-13T16:22:26.393Z,32.74
2023-01-13T16:25:31.124Z,32.92
2023-01-13T16:28:35.967Z,33.76
2023-01-13T16:31:39.537Z,34.23
2023-01-13T16:34:43.012Z,34.11
2023-01-13T16:37:47.608Z,34.35
2023-01-13T16:40:52.793Z,34.21
2023-01-13T16:43:56.052Z,34.63
2023-01-13T16:46:59.341Z,34.98
2023-01-13T16:50:02.513Z,34.74
2023-01-13T16:53:06.035Z,34.83
2023-01-13T16:56:24.941Z,34.23
2023-01-13T16:59:28.039Z,34.24
2023-01-13T17:02:31.160Z,34.13
2023-01-13T17:05:39.495Z,34.39
2023-01-13T17:08:42.588Z,34.17
2023-01-13T17:11:49.011Z,33.85
2023-01-13T17:14:52.200Z,34.23
2023-01-13T17:17:56.592Z,33.79
2023-01-13T17:21:01.590Z,33.74
2023-01-13T17:24:06.129Z,33.63
2023-01-13T17:27:10.720Z,33.47
2023-01-13T17:30:17.427Z,33.63
2023-01-13T17:33:20.653Z,33.32
2023-01-13T17:36:24.858Z,33.06
2023-01-13T17:39:28.633Z,32.95
2023-01-13T17:42:33.309Z,33.48
2023-01-13T17:45:36.547Z,33.23
2023-01-13T17:48:40.353Z,33.09
2023-01-13T17:51:44.864Z,32.85
2023-01-13T17:54:48.100Z,33.13
2023-01-13T17:57:52.812Z,33.45
2023-01-13T18:00:56.425Z,33.50
2023-01-13T18:03:59.922Z,33.68
2023-01-13T18:07:03.090Z,34.07
2023-01-13T18:10:08.084Z,34.48
2023-01-13T18:13:12.662Z,34.06
2023-01-13T18:16:19.136Z,34.32
2023-01-13T18:19:39.595Z,34.43
2023-01-13T18:22:59.680Z,34.39
2023-01-13T18:26:39.390Z,34.80
2023-01-13T18:29:44.192Z,34.53
2023-01-13T18:32:47.410Z,34.76
2023-01-13T18:35:50.759Z,34.61
2023-01-13T18:38:53.973Z,34.82
2023-01-13T18:42:14.440Z,35.04
2023-01-13T18:45:19.544Z,35.47
2023-01-13T18:48:22.651Z,35.43
2023-01-13T18:51:25.844Z,35.44
2023-01-13T18:54:28.923Z,35.77
2023-01-13T18:57:35.971Z,35.92
2023-01-13T19:00:40.908Z,36.06
2023-01-13T19:03:44.196Z,35.83
2023-01-13T19:06:51.840Z,36.04
2023-01-13T19:09:56.826Z,36.01
2023-01-13T19:13:03.993Z,36.15
2023-01-13T19:16:09.901Z,36.01
2023-01-13T19:19:13.377Z,35.88
2023-01-13T19:22:20.067Z,35.74
2023-01-13T19:25:24.008Z,35.77
2023-01-13T19:28:28.394Z,36.15
2023-01-13T19:31:33.197Z,36.01
2023-01-13T19:34:36.870Z,35.82
2023-01-13T19:37:40.967Z,35.85
2023-01-13T19:40:44.107Z,36.16
2023-01-13T19:44:05.155Z,36.33
2023-01-13T19:47:10.888Z,36.20
2023-01-13T19:50:16.105Z,36.23
2023-01-13T19:53:19.465Z,36.42
2023-01-13T19:56:23.805Z,36.61
2023-01-13T19:59:29.343Z,36.42
2023-01-13T20:05:44.057Z,36.03
2023-01-13T20:08:49.369Z,35.81
2023-01-13T20:11:54.093Z,36.21
2023-01-13T20:14:57.449Z,35.79
2023-01-13T20:18:02.430Z,36.36
2023-01-13T20:21:07.699Z,36.31
2023-01-13T20:24:17.022Z,36.03
2023-01-13T20:27:23.612Z,36.10
2023-01-13T20:30:29.766Z,36.15
2023-01-13T20:33:34.967Z,36.41
2023-01-13T20:36:41.811Z,36.68
2023-01-13T20:39:46.168Z,36.60
2023-01-13T20:42:49.427Z,36.97
2023-01-13T20:45:55.571Z,36.87
2023-01-13T20:49:02.685Z,36.75
2023-01-13T20:52:09.806Z,36.98
2023-01-13T20:55:13.690Z,36.81
2023-01-13T20:58:17.471Z,36.78
2023-01-13T21:01:20.927Z,37.36
2023-01-13T21:04:27.916Z,36.61
2023-01-13T21:07:31.852Z,36.74
2023-01-13T21:10:35.400Z,36.64
2023-01-13T21:13:56.323Z,36.50
2023-01-13T21:17:00.027Z,36.65
2023-01-13T21:20:04.688Z,36.49
2023-01-13T21:23:11.008Z,36.75
2023-01-13T21:26:20.144Z,37.16
2023-01-13T21:29:24.686Z,36.99
2023-01-13T21:32:29.662Z,37.12
2023-01-13T21:35:39.790Z,36.66
2023-01-13T21:38:43.201Z,36.25
2023-01-13T21:42:05.002Z,36.10
2023-01-13T21:45:29.642Z,36.23
2023-01-13T21:48:33.100Z,36.26
2023-01-13T21:51:37.822Z,36.00
2023-01-13T21:54:57.232Z,35.92
2023-01-13T21:58:08.041Z,35.86
2023-01-13T22:01:11.962Z,35.98
2023-01-13T22:04:16.484Z,35.84
2023-01-13T22:07:27.387Z,35.81
2023-01-13T22:10:32.050Z,35.54
2023-01-13T22:13:53.309Z,35.43
2023-01-13T22:17:01.266Z,35.58
2023-01-13T22:20:07.067Z,35.47
2023-01-13T22:23:12.373Z,35.28
2023-01-13T22:26:16.452Z,34.98
2023-01-13T22:29:19.702Z,35.31
2023-01-13T22:32:23.114Z,35.34
2023-01-13T22:35:26.881Z,35.08
2023-01-13T22:38:33.777Z,35.55
2023-01-13T22:41:37.415Z,35.07
2023-01-13T22:44:40.937Z,35.25
2023-01-13T22:47:49.472Z,35.24
2023-01-13T22:50:52.813Z,35.20
2023-01-13T22:53:58.750Z,34.65
2023-01-13T22:57:02.414Z,35.00
2023-01-13T23:00:08.009Z,34.98
2023-01-13T23:03:13.423Z,34.72
2023-01-13T23:06:18.837Z,34.99
2023-01-13T23:09:25.463Z,35.04
2023-01-13T23:12:30.925Z,34.75
2023-01-13T23:15:37.488Z,34.99
2023-01-13T23:18:43.140Z,35.08
2023-01-13T23:21:46.345Z,35.16
2023-01-13T23:24:51.273Z,34.96
2023-01-13T23:27:57.604Z,34.92
2023-01-13T23:31:02.939Z,35.11
2023-01-13T23:34:06.493Z,34.78
2023-01-13T23:37:10.848Z,34.81
2023-01-13T23:40:17.897Z,34.71
2023-01-13T23:43:21.768Z,34.87
2023-01-13T23:46:25.969Z,35.04
2023-01-13T23:49:30.015Z,35.22
2023-01-13T23:52:33.763Z,35.01
2023-01-13T23:55:39.265Z,34.60
2023-01-13T23:58:43.324Z,34.83
